Yosemite National Park, CA

9:33 PM PDT op 31 oktober 2014 (GMT -0700)
RAWS WAWONA CA US | Change Station
CLOSE
Current Station
Persoonlijk weerstation
Location: Tuolumne Meadows, CA
Geometrische hoogte: 4309 ft
Nabije weerstations
Actief advies: Winter Storm Warning

Hoogte 4309 ft 37.53 °N, 119.64 °W | Updated 42 minutes ago

Merendeels bewolkt
Merendeels bewolkt
42 °F
Voelt als 42 °F
N
2
Wind Variabel Wind van NW
Gusts 9.0 mijl/u

Vandaag
Hoog -- | Laag -- °F
--% Kans op neerslag
Gisteren
Hoog -- | Laag -- °F
Precip. -- inches
7:22 AM 6:00 PM
Wassende maan, 62% visible
Druk 29.76 inches
Zicht 4.0 mijlen
Wolken Licht bewolkt 3100 ft
Geheel bewolkt 4600 ft
Gevoelstemperatuur 42 °F
Dauwpunt 40 °F
Vochtigheid 93%
Neerslag 0.30 inches
Dikte sneeuw Niet beschikbaar.
UV 0 van de 12
Pollen 1.70 van de 12
Luchtkwaliteit Niet beschikbaar.
Flu Activity Niet beschikbaar.
METAR KO22 010415Z AUTO 00000KT 4SM SCT031 OVC046 09/09 A2976 RMK AO1 P0002

More Conditions Fewer Conditions

Druk 29.76 inches
Zicht 4.0 mijlen
Wolken Licht bewolkt 3100 ft
Geheel bewolkt 4600 ft
Gevoelstemperatuur 42 °F
Dauwpunt 40 °F
Vochtigheid 93%
Neerslag 0.30 inches
Dikte sneeuw Niet beschikbaar.
UV 0 van de 12
Pollen 1.70 van de 12
Luchtkwaliteit Niet beschikbaar.
Flu Activity Niet beschikbaar.
METAR KO22 010415Z AUTO 00000KT 4SM SCT031 OVC046 09/09 A2976 RMK AO1 P0002

More Conditions Fewer Conditions

10-Day Weather Forecast

Almanac

Astronomie

Oct. 31, 2014 Opkomst Ondergang
Werkelijke tijd
Burgerlijke schemering
Nautische schemering
Astronomische schemering
Maan
Golflengte van het zichtbare licht
Daglengte
Tomorrow will be .
, % of the Moon is Illuminated

Extremen vandaag

State Highs State Lows

Community

WunderPhotos

Upload Photos

1,766,854 foto’s ge-upload!

WunderBlogs® & News

Nearby

Luchtkwaliteit

  Luchtkwaliteit LK-index Verontreinigende stof
Not available.

Dikte sneeuw

Station Depth Geometrische hoogte

Aardbevingen

Stad Distance Mag. Time & Date
Minimum magnitude displayed is 2.5.

Watertemperatuur langs de kust

Plaats Temperatuur

Nabije weerstations